Aspen, CO

3:28 PM MDT on October 31, 2014 (GMT -0600)
Tiehack Aspen Colorado | Change Station
CLOSE
Current Station
Personal Weather Station
Location: Aspen, CO
Elevation: 8500 ft
Nearby Weather Stations
Active Advisory: Special Statement

Elev 8500 ft 39.20 °N, 106.85 °W | Updated 60 seconds ago

Partly Cloudy
Partly Cloudy
61.0 °F
Feels Like 61.0 °F
N
5.0
Wind Variable Wind from NW
Gusts 8.0 mph

Today
High -- | Low -- °F
--% Chance of Precip.
Yesterday
High -- | Low -- °F
Precip. -- in
7:33 AM 6:07 PM
First Quarter, 59% visible
Pressure 30.18 in
Visibility 10.0 miles
Clouds Clear
Dew Point 23 °F
Humidity 22%
Rainfall 0.00 in
Snow Depth Not available.
UV 3 out of 12
Pollen 1.40 out of 12
Air Quality Not available.
Flu Activity Not available.
SPECI KASE 312107Z 33009G15KT 10SM CLR 17/M08 A3018 RMK AO2 T01671078

More Conditions Fewer Conditions

Pressure 30.18 in
Visibility 10.0 miles
Clouds Clear
Dew Point 23 °F
Humidity 22%
Rainfall 0.00 in
Snow Depth Not available.
UV 3 out of 12
Pollen 1.40 out of 12
Air Quality Not available.
Flu Activity Not available.
SPECI KASE 312107Z 33009G15KT 10SM CLR 17/M08 A3018 RMK AO2 T01671078

More Conditions Fewer Conditions

10-Day Weather Forecast

Almanac

Astronomy

Oct. 31, 2014 Rise Set
Actual Time
Civil Twilight
Nautical Twilight
Astronomical Twilight
Moon
Length of Visible Light
Length of Day
Tomorrow will be .
, % of the Moon is Illuminated

Today's Extremes

State Highs State Lows

Community

WunderPhotos

Upload Photos

1,766,734 photos uploaded!

WunderBlogs® & News

Nearby

Air Quality

  Air Quality AQ Index Pollutant
Not available.

Snow Depth

Station Depth Elevation

Earthquake Activity

City Distance Mag. Time & Date
Minimum magnitude displayed is 2.5.

Coastal Water Temperatures

Place Temperature

Nearby Weather Stations